Time;durP1;ratioP1;P1;durP2;ratioP2;P2;SDS_P1;SDS_P2;PMS_P1;PMS_P2;Temp;Humidity;BMP_temperature;BMP_pressure;BME280_temperature;BME280_humidity;BME280_pressure;Samples;Min_cycle;Max_cycle;Signal;HPM_P1;HPM_P2
2021/04/26 00:01:34;;;;;;;2.90;2.80;;;;;;;5.88;24.22;101952.03;4945484;28;96872;-73
2021/04/26 00:04:06;;;;;;;2.97;2.60;;;;;;;5.88;23.91;101951.13;4943394;28;98024;-73
2021/04/26 00:06:33;;;;;;;2.53;2.42;;;;;;;5.81;23.81;101952.47;4942033;28;100843;-74
2021/04/26 00:09:00;;;;;;;3.13;3.03;;;;;;;5.77;23.98;101950.50;4942906;28;97324;-74
2021/04/26 00:11:27;;;;;;;2.80;2.80;;;;;;;5.72;24.04;101946.66;4941483;28;96812;-73
2021/04/26 00:13:54;;;;;;;2.60;2.60;;;;;;;5.68;24.13;101947.31;4960190;28;99891;-73
2021/04/26 00:16:22;;;;;;;2.70;2.50;;;;;;;5.64;24.22;101945.31;4942963;28;96933;-74
2021/04/26 00:18:49;;;;;;;3.00;2.90;;;;;;;5.59;24.25;101946.75;4940276;28;96661;-73
2021/04/26 00:21:17;;;;;;;3.10;2.95;;;;;;;5.57;24.20;101947.47;4945162;28;97513;-73
2021/04/26 00:23:43;;;;;;;3.00;2.90;;;;;;;5.55;24.19;101939.47;4943602;28;98298;-73
2021/04/26 00:26:11;;;;;;;3.22;3.03;;;;;;;5.52;24.07;101946.31;4942807;28;99093;-74
2021/04/26 00:28:38;;;;;;;3.80;3.30;;;;;;;5.45;24.41;101947.66;4941675;28;96884;-72
2021/04/26 00:31:05;;;;;;;2.80;2.70;;;;;;;5.41;24.32;101940.34;4942787;28;97127;-72
2021/04/26 00:33:33;;;;;;;2.75;2.58;;;;;;;5.36;24.28;101933.91;4943100;28;99323;-73
2021/04/26 00:36:00;;;;;;;3.15;2.95;;;;;;;5.27;24.41;101938.63;4959806;28;96897;-73
2021/04/26 00:38:27;;;;;;;2.75;2.65;;;;;;;5.23;24.37;101933.97;4957871;28;97284;-72
2021/04/26 00:40:54;;;;;;;2.92;2.83;;;;;;;5.18;24.55;101936.34;4944266;28;96801;-72
2021/04/26 00:43:21;;;;;;;3.25;3.05;;;;;;;5.15;24.44;101927.34;4942039;28;97750;-72
2021/04/26 00:45:48;;;;;;;3.20;3.00;;;;;;;5.11;24.47;101933.22;4940875;28;99374;-72
2021/04/26 00:48:15;;;;;;;3.28;3.08;;;;;;;5.08;24.42;101936.56;4941390;28;97268;-72
2021/04/26 00:50:43;;;;;;;3.80;3.63;;;;;;;5.05;24.34;101931.13;4942982;28;96856;-72
2021/04/26 00:53:12;;;;;;;3.20;3.10;;;;;;;5.02;24.47;101930.00;4939317;28;98596;-72
2021/04/26 00:55:39;;;;;;;3.42;3.22;;;;;;;4.97;24.55;101932.34;4943129;28;99004;-72
2021/04/26 00:58:07;;;;;;;3.88;3.63;;;;;;;4.94;24.48;101928.59;4943227;28;96801;-72
2021/04/26 01:00:34;;;;;;;3.60;3.30;;;;;;;4.88;24.61;101930.88;4925139;28;97086;-71
2021/04/26 01:03:02;;;;;;;3.55;3.30;;;;;;;4.85;24.68;101930.66;4940073;28;96696;-72
2021/04/26 01:05:32;;;;;;;3.35;3.20;;;;;;;4.81;24.68;101936.59;4944726;28;98058;-72
2021/04/26 01:08:01;;;;;;;3.65;3.35;;;;;;;4.79;24.71;101930.31;4925224;28;96891;-72
2021/04/26 01:10:48;;;;;;;3.25;3.13;;;;;;;4.76;24.68;101924.81;4940937;28;96904;-72
2021/04/26 01:13:29;;;;;;;3.10;3.00;;;;;;;4.71;24.87;101931.53;4925335;28;99706;-72
2021/04/26 01:16:03;;;;;;;3.45;3.30;;;;;;;4.60;24.56;101938.78;4924864;28;99638;-72
2021/04/26 01:18:37;;;;;;;3.13;3.03;;;;;;;4.55;24.77;101940.22;4923535;28;97423;-71
2021/04/26 01:21:49;;;;;;;5.07;2.90;;;;;;;4.51;24.95;101932.94;4939864;28;96870;-72
2021/04/26 01:24:49;;;;;;;3.00;2.90;;;;;;;4.53;25.21;101939.22;4921452;28;99035;-73
2021/04/26 01:27:32;;;;;;;3.22;3.13;;;;;;;4.53;25.12;101933.00;4932462;28;99646;-73
2021/04/26 01:30:13;;;;;;;3.20;3.10;;;;;;;4.54;25.32;101938.38;4938437;28;97317;-73
2021/04/26 01:33:07;;;;;;;3.10;3.00;;;;;;;4.55;24.88;101939.28;4939423;28;96778;-73
2021/04/26 01:35:39;;;;;;;3.40;3.17;;;;;;;4.56;25.15;101938.47;4927043;28;100556;-73
2021/04/26 01:38:11;;;;;;;3.05;3.05;;;;;;;4.58;25.06;101942.13;4940119;28;99469;-74
2021/04/26 01:40:41;;;;;;;3.15;3.05;;;;;;;4.57;24.93;101941.19;4942977;28;96736;-74
2021/04/26 01:43:09;;;;;;;3.03;2.85;;;;;;;4.59;25.12;101943.97;4942000;28;97950;-74
2021/04/26 01:45:37;;;;;;;3.05;2.83;;;;;;;4.59;24.96;101938.69;4941834;28;97406;-74
2021/04/26 01:48:06;;;;;;;3.28;3.17;;;;;;;4.60;25.06;101940.50;4942095;28;98270;-73
2021/04/26 01:50:38;;;;;;;3.40;3.20;;;;;;;4.58;25.21;101940.41;4942048;28;97210;-73
2021/04/26 01:53:06;;;;;;;3.50;3.40;;;;;;;4.57;25.04;101941.19;4926334;28;97371;-74
2021/04/26 01:55:33;;;;;;;3.22;3.13;;;;;;;4.55;25.42;101936.66;4925958;28;99940;-74
2021/04/26 01:58:03;;;;;;;4.07;3.30;;;;;;;4.56;25.26;101949.94;4940956;28;96897;-73
2021/04/26 02:00:36;;;;;;;3.63;3.33;;;;;;;4.55;25.49;101944.56;4957233;28;97571;-72
2021/04/26 02:03:13;;;;;;;3.33;3.13;;;;;;;4.52;25.65;101952.28;4924565;28;97339;-73
2021/04/26 02:05:49;;;;;;;3.70;3.38;;;;;;;4.52;25.36;101949.66;4938568;28;98951;-73
2021/04/26 02:08:17;;;;;;;3.42;3.13;;;;;;;4.52;25.69;101944.38;4925424;28;99666;-73
2021/04/26 02:10:47;;;;;;;4.25;3.85;;;;;;;4.51;25.45;101950.44;4943516;28;96898;-73
2021/04/26 02:13:17;;;;;;;3.35;3.25;;;;;;;4.48;25.73;101953.78;4942010;28;97353;-73
2021/04/26 02:15:47;;;;;;;3.63;3.42;;;;;;;4.45;26.00;101940.44;4924645;28;100048;-72
2021/04/26 02:18:15;;;;;;;3.97;3.78;;;;;;;4.44;25.75;101937.69;4940935;28;99375;-72
2021/04/26 02:20:42;;;;;;;3.63;3.10;;;;;;;4.41;25.69;101937.50;4926837;28;96808;-74
2021/04/26 02:23:09;;;;;;;3.75;3.60;;;;;;;4.40;25.75;101935.69;4940739;28;96804;-72
2021/04/26 02:25:36;;;;;;;3.92;3.72;;;;;;;4.37;26.01;101940.75;4925216;28;100269;-74
2021/04/26 02:28:05;;;;;;;4.75;4.32;;;;;;;4.37;26.11;101943.41;4941779;28;97637;-73
2021/04/26 02:30:32;;;;;;;4.30;4.00;;;;;;;4.33;26.02;101944.00;4936882;28;96983;-73
2021/04/26 02:33:03;;;;;;;4.45;4.00;;;;;;;4.31;25.99;101950.91;4926257;28;96964;-73
2021/04/26 02:35:42;;;;;;;4.35;4.10;;;;;;;4.27;26.47;101949.78;4926758;28;99800;-73
2021/04/26 02:38:13;;;;;;;4.50;4.20;;;;;;;4.26;26.17;101953.25;4945927;28;97579;-74
2021/04/26 02:40:42;;;;;;;4.00;3.70;;;;;;;4.22;26.20;101946.84;4928046;28;96840;-72
2021/04/26 02:43:12;;;;;;;4.18;3.78;;;;;;;4.18;26.40;101943.91;4944521;28;96808;-73
2021/04/26 02:45:45;;;;;;;4.32;4.00;;;;;;;4.16;26.45;101945.53;4927423;28;98414;-72
2021/04/26 02:48:13;;;;;;;4.50;4.10;;;;;;;4.14;26.43;101948.09;4927092;28;98484;-73
2021/04/26 02:51:05;;;;;;;3.80;3.60;;;;;;;4.11;26.29;101942.63;4957319;28;97520;-73
2021/04/26 02:53:33;;;;;;;4.20;3.80;;;;;;;4.11;26.33;101947.91;4928840;28;97143;-74
2021/04/26 02:56:05;;;;;;;4.25;4.05;;;;;;;4.09;26.53;101946.88;4944602;28;98432;-73
2021/04/26 02:58:36;;;;;;;3.95;3.75;;;;;;;4.07;26.45;101943.22;4946048;28;99222;-73
2021/04/26 03:01:11;;;;;;;4.55;4.15;;;;;;;4.04;26.78;101943.00;4928522;28;97293;-72
2021/04/26 03:03:47;;;;;;;12.13;9.18;;;;;;;4.06;26.27;101940.50;4946023;28;96714;-74
2021/04/26 03:06:17;;;;;;;15.55;10.88;;;;;;;4.02;26.67;101931.44;4944950;28;99167;-73
2021/04/26 03:09:02;;;;;;;7.90;6.78;;;;;;;3.98;26.47;101933.81;4943373;28;98428;-72
2021/04/26 03:11:30;;;;;;;5.15;4.80;;;;;;;3.97;26.23;101932.00;4945102;28;96882;-73
2021/04/26 03:13:58;;;;;;;4.03;3.63;;;;;;;3.96;26.39;101925.81;4928310;28;97760;-74
2021/04/26 03:16:26;;;;;;;4.15;3.85;;;;;;;3.93;26.53;101928.22;4930002;28;99462;-73
2021/04/26 03:18:53;;;;;;;3.40;3.30;;;;;;;3.92;26.61;101928.13;4943996;28;96742;-73
2021/04/26 03:21:23;;;;;;;3.67;3.50;;;;;;;3.89;26.01;101927.94;4928179;28;96764;-73
2021/04/26 03:23:55;;;;;;;3.58;3.47;;;;;;;3.89;26.22;101920.97;4928998;28;96839;-73
2021/04/26 03:26:22;;;;;;;3.75;3.50;;;;;;;3.90;25.86;101919.22;4943728;28;97052;-73
2021/04/26 03:28:49;;;;;;;4.40;4.00;;;;;;;3.92;25.66;101907.06;4943305;28;97062;-72
2021/04/26 03:31:17;;;;;;;3.35;3.25;;;;;;;3.90;26.14;101912.22;4945404;28;96742;-73
2021/04/26 03:34:08;;;;;;;3.50;3.30;;;;;;;3.92;26.07;101913.25;4928766;28;96842;-72
2021/04/26 03:36:38;;;;;;;3.45;3.28;;;;;;;3.94;25.79;101910.72;4926465;28;96840;-73
2021/04/26 03:39:08;;;;;;;4.22;3.90;;;;;;;3.95;25.90;101907.28;4944084;28;96928;-72
2021/04/26 03:41:36;;;;;;;3.88;3.72;;;;;;;3.95;25.87;101908.16;4944079;28;97063;-72
2021/04/26 03:44:04;;;;;;;3.55;3.35;;;;;;;3.92;25.84;101905.34;4941806;28;96828;-73
2021/04/26 03:46:44;;;;;;;3.78;3.40;;;;;;;3.90;26.42;101898.13;4942514;28;96869;-73
2021/04/26 03:49:46;;;;;;;3.85;3.70;;;;;;;3.88;26.47;101905.94;4938965;28;96897;-73
2021/04/26 03:52:26;;;;;;;4.10;3.88;;;;;;;3.88;25.96;101905.94;4960625;28;97375;-73
2021/04/26 03:55:06;;;;;;;12.35;6.90;;;;;;;3.85;26.33;101900.50;4942893;28;96894;-74
2021/04/26 03:57:34;;;;;;;5.22;4.72;;;;;;;3.82;25.96;101905.56;4943532;28;97759;-72
2021/04/26 04:00:00;;;;;;;4.90;4.50;;;;;;;3.78;26.23;101902.63;4927357;28;99115;-73
2021/04/26 04:02:33;;;;;;;4.47;4.18;;;;;;;3.76;26.08;101899.88;4954957;28;96957;-72
2021/04/26 04:05:03;;;;;;;5.28;4.45;;;;;;;3.76;26.06;101898.97;4923565;28;97528;-73
2021/04/26 04:07:57;;;;;;;4.60;4.30;;;;;;;3.73;26.33;101899.66;4942954;28;98109;-73
2021/04/26 04:11:03;;;;;;;4.28;4.07;;;;;;;3.69;26.48;101897.66;4942060;28;97749;-73
2021/04/26 04:14:00;;;;;;;4.45;4.15;;;;;;;3.65;26.40;101900.91;4936477;28;96941;-71
2021/04/26 04:16:29;;;;;;;5.00;4.70;;;;;;;3.65;26.61;101895.63;4927534;28;97127;-73
2021/04/26 04:18:57;;;;;;;13.38;9.13;;;;;;;3.63;26.51;101897.22;4935558;28;98399;-74
2021/04/26 04:21:26;;;;;;;76.13;29.85;;;;;;;3.63;26.44;101897.22;4927968;28;99655;-73
2021/04/26 04:23:56;;;;;;;26.05;15.02;;;;;;;3.60;26.27;101894.38;4926693;28;96979;-71
2021/04/26 04:26:23;;;;;;;5.68;5.25;;;;;;;3.54;26.24;101895.69;4945399;28;96877;-71
2021/04/26 04:29:02;;;;;;;4.63;4.32;;;;;;;3.46;27.13;101889.00;4928112;28;100104;-73
2021/04/26 04:31:49;;;;;;;4.85;4.45;;;;;;;3.36;26.42;101886.56;4942998;28;99815;-72
2021/04/26 04:34:36;;;;;;;4.60;4.30;;;;;;;3.31;26.63;101891.53;4944214;28;96738;-72
2021/04/26 04:37:21;;;;;;;4.60;3.67;;;;;;;3.34;26.79;101878.56;4942874;28;96743;-73
2021/04/26 04:40:08;;;;;;;5.03;4.63;;;;;;;3.30;26.89;101883.50;4944316;28;97437;-73
2021/04/26 04:42:41;;;;;;;5.35;4.95;;;;;;;3.28;27.11;101891.28;4944279;28;98792;-72
2021/04/26 04:45:12;;;;;;;4.53;4.15;;;;;;;3.27;26.95;101884.22;4925285;28;96806;-73
2021/04/26 04:48:11;;;;;;;4.65;4.25;;;;;;;3.28;26.96;101883.41;4943556;28;97872;-73
2021/04/26 04:50:47;;;;;;;4.20;3.95;;;;;;;3.30;26.99;101887.03;4939623;28;99375;-72
2021/04/26 04:53:16;;;;;;;4.13;3.78;;;;;;;3.34;26.97;101881.19;4944100;28;99021;-71
2021/04/26 04:55:48;;;;;;;4.32;4.10;;;;;;;3.34;26.51;101881.19;4943109;28;96839;-74
2021/04/26 04:58:18;;;;;;;4.25;3.97;;;;;;;3.35;26.74;101875.09;4923671;28;97181;-74
2021/04/26 05:00:46;;;;;;;4.35;4.00;;;;;;;3.38;26.76;101882.31;4927324;28;98386;-74
2021/04/26 05:03:31;;;;;;;4.20;3.92;;;;;;;3.41;26.25;101883.41;4944579;28;97497;-72
2021/04/26 05:06:17;;;;;;;3.70;3.50;;;;;;;3.49;26.73;101881.31;4944089;28;96763;-73
2021/04/26 05:09:03;;;;;;;4.10;3.80;;;;;;;3.54;26.56;101882.53;4944814;28;96896;-74
2021/04/26 05:11:49;;;;;;;4.18;3.85;;;;;;;3.58;26.48;101882.84;4958599;28;100125;-74
2021/04/26 05:14:27;;;;;;;3.83;3.63;;;;;;;3.62;26.16;101886.59;4942531;28;98720;-75
2021/04/26 05:16:56;;;;;;;4.68;4.28;;;;;;;3.64;26.35;101883.22;4943218;28;97348;-74
2021/04/26 05:19:23;;;;;;;4.22;3.90;;;;;;;3.69;26.34;101889.78;4941853;28;97010;-72
2021/04/26 05:21:50;;;;;;;4.15;3.75;;;;;;;3.71;25.95;101887.22;4942089;28;97543;-72
2021/04/26 05:24:17;;;;;;;4.05;3.80;;;;;;;3.79;25.95;101878.09;4924819;28;99242;-73
2021/04/26 05:26:44;;;;;;;4.13;3.83;;;;;;;3.83;25.86;101869.59;4926785;28;97980;-72
2021/04/26 05:29:15;;;;;;;4.38;3.58;;;;;;;3.88;26.15;101876.97;4942327;28;98930;-72
2021/04/26 05:31:42;;;;;;;3.42;3.28;;;;;;;3.91;26.06;101879.84;4941252;28;100296;-74
2021/04/26 05:34:09;;;;;;;4.50;3.20;;;;;;;3.96;25.96;101878.41;4942585;28;99633;-74
2021/04/26 05:36:42;;;;;;;4.07;3.75;;;;;;;4.02;25.74;101870.88;4927374;28;97265;-72
2021/04/26 05:39:10;;;;;;;4.00;3.78;;;;;;;4.08;25.72;101879.19;4941125;28;96745;-73
2021/04/26 05:41:37;;;;;;;3.67;3.47;;;;;;;4.13;25.55;101876.88;4926696;28;99098;-72
2021/04/26 05:44:09;;;;;;;4.93;4.47;;;;;;;4.18;25.50;101878.97;4942645;28;96964;-72
2021/04/26 05:46:44;;;;;;;4.85;4.43;;;;;;;4.21;25.79;101873.91;4925596;28;96796;-72
2021/04/26 05:49:11;;;;;;;4.22;4.03;;;;;;;4.27;25.53;101864.56;4936490;28;97405;-72
2021/04/26 05:51:38;;;;;;;4.97;4.57;;;;;;;4.33;25.54;101875.50;4925733;28;98910;-72
2021/04/26 05:54:05;;;;;;;4.85;4.43;;;;;;;4.41;25.76;101874.28;4942490;28;99238;-73
2021/04/26 05:56:32;;;;;;;4.57;4.18;;;;;;;4.49;25.52;101862.47;4940006;28;96879;-74
2021/04/26 05:58:59;;;;;;;5.43;4.60;;;;;;;4.57;25.64;101867.38;4937174;28;97089;-73
2021/04/26 06:01:27;;;;;;;5.90;4.35;;;;;;;4.66;25.37;101861.81;4938239;28;98931;-70
2021/04/26 06:04:07;;;;;;;5.13;4.72;;;;;;;4.75;25.43;101862.38;4936186;28;98502;-74
2021/04/26 06:06:34;;;;;;;5.03;4.63;;;;;;;4.82;25.30;101854.00;4929502;28;96945;-73
2021/04/26 06:09:02;;;;;;;4.22;3.92;;;;;;;4.94;25.22;101857.38;4931398;28;97626;-76
2021/04/26 06:11:29;;;;;;;12.98;9.15;;;;;;;5.02;25.04;101856.13;4930444;28;97877;-72
2021/04/26 06:13:56;;;;;;;17.58;10.60;;;;;;;5.10;25.02;101852.28;4928365;28;98175;-73
2021/04/26 06:16:23;;;;;;;9.15;6.82;;;;;;;5.18;25.08;101854.53;4903233;28;99659;-74
2021/04/26 06:18:50;;;;;;;18.77;12.82;;;;;;;5.29;25.01;101852.53;4908654;28;97498;-74
2021/04/26 06:21:18;;;;;;;17.33;12.48;;;;;;;5.39;24.77;101852.28;4911239;28;98940;-72
2021/04/26 06:23:45;;;;;;;5.47;5.07;;;;;;;5.49;24.76;101851.06;4906180;28;98260;-72
2021/04/26 06:26:12;;;;;;;3.10;2.90;;;;;;;5.56;24.85;101856.78;4908909;28;97073;-72
2021/04/26 06:28:39;;;;;;;4.00;3.80;;;;;;;5.64;24.87;101841.41;4894099;28;97680;-72
2021/04/26 06:31:06;;;;;;;4.20;3.67;;;;;;;5.72;24.71;101846.28;4913957;28;99450;-72
2021/04/26 06:33:32;;;;;;;3.17;3.08;;;;;;;5.79;24.25;101835.28;4911668;28;97714;-73
2021/04/26 06:36:00;;;;;;;3.90;3.58;;;;;;;5.85;24.67;101835.59;4915450;28;97266;-75
2021/04/26 06:38:28;;;;;;;3.55;3.40;;;;;;;5.92;24.33;101839.53;4911424;28;97610;-74
2021/04/26 06:40:55;;;;;;;3.45;3.25;;;;;;;5.97;24.34;101841.59;4918366;28;99682;-74
2021/04/26 06:43:22;;;;;;;3.22;3.03;;;;;;;6.04;24.31;101837.56;4918881;28;97010;-75
2021/04/26 06:45:49;;;;;;;2.78;2.65;;;;;;;6.08;24.07;101832.56;4924428;28;96957;-73
2021/04/26 06:48:17;;;;;;;2.75;2.75;;;;;;;6.14;24.14;101831.97;4925703;28;97147;-73
2021/04/26 06:50:46;;;;;;;8.73;6.05;;;;;;;6.18;24.06;101834.88;4924442;28;98695;-72
2021/04/26 06:53:13;;;;;;;13.93;8.60;;;;;;;6.27;23.83;101841.53;4925549;28;98940;-72
2021/04/26 06:55:41;;;;;;;9.48;7.68;;;;;;;6.27;23.93;101842.41;4923353;28;97369;-72
2021/04/26 06:58:08;;;;;;;5.10;4.57;;;;;;;6.26;24.07;101843.22;4918768;28;97574;-73
2021/04/26 07:00:35;;;;;;;5.47;4.65;;;;;;;6.33;23.70;101841.84;4921240;28;99537;-72
2021/04/26 07:03:03;;;;;;;4.13;3.83;;;;;;;6.42;23.58;101837.06;4924518;28;98468;-73
2021/04/26 07:05:30;;;;;;;3.17;2.97;;;;;;;6.47;23.70;101832.97;4924767;28;96915;-72
2021/04/26 07:08:04;;;;;;;3.05;2.95;;;;;;;6.51;23.43;101841.13;4920217;28;96898;-75
2021/04/26 07:10:32;;;;;;;2.70;2.60;;;;;;;6.56;23.36;101839.63;4922709;28;97696;-73
2021/04/26 07:13:06;;;;;;;2.47;2.42;;;;;;;6.63;23.39;101843.53;4920248;28;98757;-73
2021/04/26 07:15:32;;;;;;;2.72;2.72;;;;;;;6.68;23.61;101842.03;4898549;28;97396;-73
2021/04/26 07:17:59;;;;;;;3.10;3.00;;;;;;;6.73;23.43;101837.88;4919275;28;97095;-72
2021/04/26 07:20:27;;;;;;;3.22;2.88;;;;;;;6.80;23.60;101845.31;4901305;28;100965;-74
2021/04/26 07:22:54;;;;;;;3.00;2.90;;;;;;;6.89;23.10;101838.78;4915223;28;97094;-73
2021/04/26 07:25:21;;;;;;;3.03;2.90;;;;;;;6.93;23.13;101843.41;4919288;28;96952;-73
2021/04/26 07:27:50;;;;;;;3.45;2.90;;;;;;;6.99;23.11;101845.47;4920316;28;96852;-73
2021/04/26 07:30:24;;;;;;;2.80;2.65;;;;;;;7.00;23.13;101840.25;4915559;28;98644;-73
2021/04/26 07:32:51;;;;;;;2.80;2.78;;;;;;;7.00;23.09;101834.03;4919510;28;98646;-72
2021/04/26 07:35:18;;;;;;;3.17;2.95;;;;;;;7.04;23.44;101834.31;4920536;28;96852;-72
2021/04/26 07:37:45;;;;;;;3.03;2.83;;;;;;;7.12;23.29;101832.06;4916460;28;97017;-72
2021/04/26 07:40:15;;;;;;;2.45;2.33;;;;;;;7.22;23.14;101835.25;4916160;28;99572;-71
2021/04/26 07:42:42;;;;;;;2.70;2.50;;;;;;;7.30;23.07;101832.06;4919668;28;97579;-72
2021/04/26 07:45:12;;;;;;;2.40;2.20;;;;;;;7.39;22.84;101827.25;4913064;28;97660;-72
2021/04/26 07:47:42;;;;;;;2.72;2.53;;;;;;;7.44;22.96;101834.63;4906756;28;97575;-72
2021/04/26 07:50:10;;;;;;;2.35;2.35;;;;;;;7.48;23.09;101833.97;4915264;28;96896;-72
2021/04/26 07:52:37;;;;;;;2.90;2.70;;;;;;;7.57;22.90;101828.19;4921140;28;98674;-74
2021/04/26 07:55:05;;;;;;;2.35;2.30;;;;;;;7.66;22.79;101834.88;4919339;28;96827;-73
2021/04/26 07:57:32;;;;;;;2.80;2.70;;;;;;;7.75;23.10;101834.41;4921037;28;96900;-73
2021/04/26 07:59:59;;;;;;;2.80;2.60;;;;;;;7.78;23.25;101822.22;4918406;28;99713;-73
2021/04/26 08:02:27;;;;;;;2.70;2.60;;;;;;;7.83;22.72;101827.75;4919773;28;97369;-73
2021/04/26 08:04:55;;;;;;;2.72;2.63;;;;;;;7.90;22.86;101819.25;4904681;28;96927;-73
2021/04/26 08:07:22;;;;;;;2.78;2.60;;;;;;;7.94;22.84;101816.84;4918570;28;96802;-73
2021/04/26 08:09:49;;;;;;;2.80;2.60;;;;;;;8.00;22.79;101811.81;4917023;28;97590;-72
2021/04/26 08:12:16;;;;;;;2.20;2.20;;;;;;;7.99;22.91;101812.66;4911929;28;97391;-72
2021/04/26 08:14:43;;;;;;;2.80;2.15;;;;;;;8.01;22.90;101805.69;4913827;28;96939;-72
2021/04/26 08:17:10;;;;;;;2.90;2.22;;;;;;;8.07;22.75;101807.72;4902053;28;97331;-73
2021/04/26 08:19:37;;;;;;;2.70;2.50;;;;;;;8.06;22.16;101801.53;4916802;28;98631;-73
2021/04/26 08:22:07;;;;;;;2.40;2.30;;;;;;;8.15;22.35;101801.03;4914472;28;98450;-72
2021/04/26 08:24:35;;;;;;;2.65;2.45;;;;;;;8.18;22.37;101796.78;4914557;28;97681;-74
2021/04/26 08:27:02;;;;;;;3.10;2.70;;;;;;;8.20;22.51;101800.41;4911489;28;97036;-73
2021/04/26 08:29:29;;;;;;;2.70;2.60;;;;;;;8.24;22.38;101797.06;4914661;28;96975;-73
2021/04/26 08:32:01;;;;;;;2.53;2.42;;;;;;;8.28;22.25;101805.19;4917476;28;98351;-68
2021/04/26 08:34:31;;;;;;;2.50;2.30;;;;;;;8.30;22.13;101801.75;4905979;28;97016;-71
2021/04/26 08:37:00;;;;;;;2.67;2.25;;;;;;;8.33;22.35;101796.59;4934322;28;97490;-73
2021/04/26 08:39:30;;;;;;;3.47;2.67;;;;;;;8.35;22.33;101802.88;4919111;28;97376;-72
2021/04/26 08:41:57;;;;;;;2.17;2.17;;;;;;;8.40;22.48;101792.50;4917840;28;100520;-72
2021/04/26 08:44:24;;;;;;;2.38;2.30;;;;;;;8.46;21.93;101803.38;4918727;28;97085;-72
2021/04/26 08:46:52;;;;;;;2.42;2.10;;;;;;;8.54;22.39;101797.63;4918598;28;97167;-73
2021/04/26 08:49:21;;;;;;;4.68;2.15;;;;;;;8.59;22.18;101800.47;4917103;28;99892;-73
2021/04/26 08:51:48;;;;;;;2.47;2.38;;;;;;;8.65;22.29;101791.06;4935732;28;97233;-73
2021/04/26 08:54:16;;;;;;;3.00;2.70;;;;;;;8.68;22.32;101791.19;4913951;28;97165;-72
2021/04/26 08:56:47;;;;;;;2.88;2.67;;;;;;;8.75;21.96;101792.38;4920256;28;96932;-72
2021/04/26 08:59:18;;;;;;;2.20;2.10;;;;;;;8.85;22.15;101794.59;4919674;28;99167;-73
2021/04/26 09:01:59;;;;;;;2.35;2.25;;;;;;;8.93;21.64;101788.75;4903238;28;100958;-73
2021/04/26 09:04:32;;;;;;;2.65;2.45;;;;;;;9.01;21.82;101794.41;4920248;28;96971;-74
2021/04/26 09:07:01;;;;;;;8.95;6.80;;;;;;;9.05;21.80;101796.38;4919542;28;97252;-73
2021/04/26 09:09:34;;;;;;;3.33;3.13;;;;;;;9.01;21.65;101791.75;4938243;28;99754;-73
2021/04/26 09:12:02;;;;;;;6.38;4.50;;;;;;;9.01;21.75;101789.09;4920795;28;97714;-73
2021/04/26 09:14:43;;;;;;;24.05;14.35;;;;;;;9.09;21.36;101785.03;4937013;28;97407;-73
2021/04/26 09:17:28;;;;;;;10.38;7.35;;;;;;;9.14;21.38;101780.81;4921445;28;97411;-74
2021/04/26 09:19:56;;;;;;;5.25;4.82;;;;;;;9.19;21.83;101780.19;4935695;28;97732;-72
2021/04/26 09:22:45;;;;;;;3.75;3.45;;;;;;;9.28;21.29;101779.66;4920018;28;97337;-73
2021/04/26 09:25:29;;;;;;;23.40;13.68;;;;;;;9.33;21.38;101775.47;4920779;28;96808;-72
2021/04/26 09:28:07;;;;;;;38.67;22.88;;;;;;;9.38;21.37;101767.66;4923804;28;96876;-73
2021/04/26 09:30:42;;;;;;;6.88;6.22;;;;;;;9.42;21.61;101765.22;4921762;28;98016;-72
2021/04/26 09:33:33;;;;;;;2.75;2.50;;;;;;;9.47;20.97;101765.38;4924447;28;97038;-73
2021/04/26 09:36:17;;;;;;;2.80;2.60;;;;;;;9.46;21.55;101767.16;4923743;28;96748;-72
2021/04/26 09:38:46;;;;;;;3.03;2.28;;;;;;;9.44;21.04;101759.97;4904009;28;96888;-73
2021/04/26 09:41:24;;;;;;;2.42;2.28;;;;;;;9.57;20.83;101757.00;4905311;28;99748;-73
2021/04/26 09:43:54;;;;;;;3.28;2.60;;;;;;;9.61;21.06;101765.16;4924508;28;98714;-72
2021/04/26 09:46:22;;;;;;;3.60;2.40;;;;;;;9.67;21.07;101760.09;4925679;28;96874;-72
2021/04/26 09:48:50;;;;;;;3.42;2.20;;;;;;;9.76;21.19;101755.13;4925103;28;96830;-73
2021/04/26 09:51:20;;;;;;;2.55;2.40;;;;;;;9.81;21.07;101745.59;4908652;28;98988;-73
2021/04/26 09:53:52;;;;;;;3.88;2.50;;;;;;;9.88;21.04;101746.75;4925092;28;99580;-72
2021/04/26 09:56:22;;;;;;;2.58;2.53;;;;;;;9.97;21.04;101753.31;4926290;28;96875;-73
2021/04/26 09:58:51;;;;;;;2.45;2.35;;;;;;;9.99;20.97;101740.97;4924892;28;96813;-72
2021/04/26 10:01:20;;;;;;;2.28;2.13;;;;;;;10.01;20.93;101739.28;4908801;28;99041;-75
2021/04/26 10:03:49;;;;;;;14.55;9.45;;;;;;;9.99;21.04;101727.69;4910241;28;97787;-73
2021/04/26 10:06:20;;;;;;;10.32;7.30;;;;;;;10.00;20.82;101737.50;4926168;28;96688;-74
2021/04/26 10:08:48;;;;;;;5.78;4.97;;;;;;;10.01;20.96;101733.97;4924758;28;97192;-74
2021/04/26 10:11:16;;;;;;;3.13;2.92;;;;;;;10.04;21.09;101725.22;4924875;28;97822;-74
2021/04/26 10:13:44;;;;;;;2.28;2.17;;;;;;;10.08;21.10;101725.38;4925618;28;98621;-71
2021/04/26 10:16:14;;;;;;;2.45;2.30;;;;;;;10.09;20.98;101718.31;4925288;28;97510;-73
2021/04/26 10:18:43;;;;;;;2.42;2.33;;;;;;;10.12;20.98;101724.66;4925494;28;96875;-73
2021/04/26 10:21:34;;;;;;;2.67;2.42;;;;;;;10.21;20.39;101724.06;4927443;28;98777;-72
2021/04/26 10:24:16;;;;;;;2.60;2.40;;;;;;;10.27;20.40;101723.41;4924120;28;97363;-73
2021/04/26 10:26:52;;;;;;;2.25;2.15;;;;;;;10.31;20.79;101717.34;4924664;28;96840;-72
2021/04/26 10:29:26;;;;;;;2.50;2.35;;;;;;;10.38;20.98;101717.63;4926595;28;97151;-72
2021/04/26 10:32:13;;;;;;;2.30;2.20;;;;;;;10.45;19.12;101710.84;4925718;28;100313;-72
2021/04/26 10:35:13;;;;;;;2.38;2.28;;;;;;;10.49;20.04;101708.31;4925872;28;97656;-74
2021/04/26 10:37:41;;;;;;;2.40;2.30;;;;;;;10.49;20.91;101702.09;4924519;28;97960;-74
2021/04/26 10:40:15;;;;;;;2.17;2.17;;;;;;;10.51;20.55;101701.31;4924787;28;96898;-72
2021/04/26 10:42:44;;;;;;;2.35;2.28;;;;;;;10.56;20.75;101694.38;4923903;28;100782;-73
2021/04/26 10:45:27;;;;;;;2.83;2.72;;;;;;;10.60;20.08;101685.66;4925782;28;97693;-73
2021/04/26 10:48:12;;;;;;;2.35;2.22;;;;;;;10.67;19.93;101692.09;4920713;28;97020;-72
2021/04/26 10:50:44;;;;;;;2.50;2.30;;;;;;;10.78;20.53;101688.97;4925352;28;97436;-74
2021/04/26 10:53:12;;;;;;;2.38;2.15;;;;;;;10.89;20.50;101681.34;4924559;28;100531;-74
2021/04/26 10:55:59;;;;;;;3.78;3.03;;;;;;;11.03;20.49;101672.06;4922543;28;99033;-73
2021/04/26 10:58:42;;;;;;;2.30;2.20;;;;;;;11.13;19.96;101663.53;4922590;28;96822;-75
2021/04/26 11:01:17;;;;;;;2.05;2.05;;;;;;;11.18;20.35;101667.22;4922802;28;96904;-73
2021/04/26 11:03:45;;;;;;;5.20;2.33;;;;;;;11.29;20.40;101663.16;4924326;28;99807;-74
2021/04/26 11:06:18;;;;;;;2.53;2.42;;;;;;;11.35;20.00;101671.41;4923430;28;99645;-73
2021/04/26 11:08:50;;;;;;;2.22;2.10;;;;;;;11.36;20.08;101672.31;4924412;28;96782;-73
2021/04/26 11:11:19;;;;;;;3.78;2.10;;;;;;;11.36;19.91;101667.84;4932099;28;96844;-74
2021/04/26 11:13:52;;;;;;;2.53;2.42;;;;;;;11.34;20.21;101666.94;4929006;28;100348;-73
2021/04/26 11:16:53;;;;;;;2.05;2.05;;;;;;;11.40;19.41;101663.53;4910520;28;98977;-74
2021/04/26 11:19:20;;;;;;;2.60;2.50;;;;;;;11.39;19.90;101651.06;4948110;28;97214;-74
2021/04/26 11:21:58;;;;;;;2.25;2.15;;;;;;;11.31;19.30;101648.16;4934103;28;96709;-73
2021/04/26 11:25:02;;;;;;;2.17;2.17;;;;;;;11.35;18.64;101655.41;4937414;28;99339;-74
2021/04/26 11:27:29;;;;;;;2.22;2.10;;;;;;;11.30;20.00;101646.34;4926435;28;100073;-73
2021/04/26 11:30:19;;;;;;;2.53;2.10;;;;;;;11.17;18.93;101633.47;4926421;28;97145;-74
2021/04/26 11:33:23;;;;;;;2.25;2.15;;;;;;;11.08;18.03;101639.41;4926267;28;96905;-74
2021/04/26 11:36:13;;;;;;;2.17;2.08;;;;;;;11.07;19.12;101629.59;4925373;28;97676;-73
2021/04/26 11:38:43;;;;;;;2.08;1.98;;;;;;;11.08;20.11;101641.16;4922313;28;98812;-73
2021/04/26 11:41:11;;;;;;;2.58;2.33;;;;;;;11.14;20.13;101628.94;4906886;28;96913;-73
2021/04/26 11:43:49;;;;;;;2.15;2.15;;;;;;;11.22;19.74;101626.53;4922956;28;98050;-72
2021/04/26 11:46:25;;;;;;;4.63;4.25;;;;;;;11.27;19.83;101611.56;4938491;28;98214;-74
2021/04/26 11:49:11;;;;;;;3.13;2.92;;;;;;;11.34;19.51;101610.97;4917776;28;100541;-73
2021/04/26 11:51:38;;;;;;;2.65;2.30;;;;;;;11.41;19.99;101612.97;4906923;28;96976;-75
2021/04/26 11:54:10;;;;;;;2.17;2.08;;;;;;;11.46;19.83;101606.00;4924386;28;97019;-74
2021/04/26 11:56:37;;;;;;;2.75;2.63;;;;;;;11.54;19.87;101609.81;4924796;28;97752;-74